Current | Forecast
Updated: 7:00 PM JST on June 29, 2017
Observed at Kagoshima Airport, Japan
Temperature 81°F
Humidity 79%
Dew Point 73°F
Wind SSE at 6 mph
Pressure 29.92 in (Steady)
Conditions Partly Cloudy
Visibility 6.2 miles
UV 0 out of 16
Clouds (FEW) : 2000 ft
Yesterday's Maximum 79°F
Yesterday's Minimum 70°F approx.
Yesterday's Cooling Degree Days 9 approx.
Sunrise5:16 AM JST
Sunset7:27 PM JST
Moon Rise10:34 AM JST
Moon Set11:30 PM JST
Moon PhaseMoon Phase
Waxing Crescent
Raw METARMETAR RJFK 291000Z 16005KT 120V190 9999 FEW020 27/23 Q1013 RMK 2CU020 A2992 VOLCANIC ASH CLOUD S


Monday
. High: 73° F.
Tuesday
. High: 71° F.
Wednesday
. High: 71° F.
Thursday
. High: 75° F.
Friday
. High: 71° F.
Saturday
. High: 75° F.
Sunday
. High: 75° F.
Monday
. High: 73° F.

Units: English | Metric

Find the Weather for any City, State or Zipcode, or Country:

U.S. State List | Severe Weather | Tropical Storms | Ski Conditions
United States | Canada | Central America | South America | Asia | Europe | Australia | Africa | Islands

Weather Underground

© Copyright 2017
The Weather Company, LLC